createdAt,value
2017-11-21T00:02:13.902Z,0.43
2017-11-21T00:04:41.389Z,0.40
2017-11-21T00:07:08.890Z,0.47
2017-11-21T00:09:36.397Z,0.60
2017-11-21T00:12:03.894Z,0.50
2017-11-21T00:14:32.149Z,0.70
2017-11-21T00:16:59.649Z,0.50
2017-11-21T00:19:27.150Z,0.70
2017-11-21T00:21:54.651Z,0.40
2017-11-21T00:24:22.270Z,1.17
2017-11-21T00:26:49.765Z,1.10
2017-11-21T00:29:17.271Z,0.70
2017-11-21T00:31:44.857Z,0.50
2017-11-21T00:34:13.125Z,0.60
2017-11-21T00:36:40.624Z,0.90
2017-11-21T00:39:08.149Z,0.80
2017-11-21T00:41:36.416Z,0.60
2017-11-21T00:44:04.697Z,0.90
2017-11-21T00:46:32.977Z,0.60
2017-11-21T00:49:01.245Z,0.50
2017-11-21T00:51:29.517Z,0.50
2017-11-21T00:53:57.774Z,0.60
2017-11-21T00:56:25.282Z,0.60
2017-11-21T00:58:52.783Z,0.43
2017-11-21T01:01:20.293Z,0.60
2017-11-21T01:03:47.790Z,0.80
2017-11-21T01:06:15.289Z,0.67
2017-11-21T01:08:43.557Z,0.90
2017-11-21T01:11:11.848Z,0.77
2017-11-21T01:13:39.356Z,0.83
2017-11-21T01:16:06.853Z,0.50
2017-11-21T01:18:35.128Z,0.50
2017-11-21T01:21:03.395Z,0.50
2017-11-21T01:23:31.674Z,0.60
2017-11-21T01:25:59.193Z,0.80
2017-11-21T01:28:27.495Z,0.50
2017-11-21T01:30:55.772Z,0.40
2017-11-21T01:33:24.050Z,0.40
2017-11-21T01:35:52.327Z,0.50
2017-11-21T01:38:20.612Z,0.60
2017-11-21T01:40:48.117Z,0.40
2017-11-21T01:43:15.630Z,0.40
2017-11-21T01:45:43.151Z,0.40
2017-11-21T01:48:10.661Z,0.50
2017-11-21T01:50:38.172Z,0.70
2017-11-21T01:53:05.689Z,0.50
2017-11-21T01:55:33.218Z,0.60
2017-11-21T01:58:00.723Z,0.70
2017-11-21T02:00:28.215Z,0.50
2017-11-21T02:03:04.470Z,0.40
2017-11-21T02:05:32.782Z,0.40
2017-11-21T02:08:00.296Z,0.60
2017-11-21T02:10:28.564Z,0.40
2017-11-21T02:12:56.065Z,0.67
2017-11-21T02:15:23.564Z,0.50
2017-11-21T02:17:51.069Z,0.70
2017-11-21T02:20:18.577Z,0.40
2017-11-21T02:22:46.072Z,0.70
2017-11-21T02:25:14.353Z,0.47
2017-11-21T02:27:41.842Z,0.50
2017-11-21T02:30:09.359Z,0.60
2017-11-21T02:32:36.872Z,0.90
2017-11-21T02:35:04.370Z,0.80
2017-11-21T02:37:32.642Z,0.60
2017-11-21T02:40:00.906Z,0.47
2017-11-21T02:42:29.185Z,0.80
2017-11-21T02:44:57.462Z,0.60
2017-11-21T02:47:25.750Z,0.80
2017-11-21T02:49:54.012Z,0.57
2017-11-21T02:52:22.273Z,0.67
2017-11-21T02:54:49.804Z,1.03
2017-11-21T02:57:17.297Z,0.77
2017-11-21T02:59:45.567Z,0.70
2017-11-21T03:02:13.844Z,0.80
2017-11-21T03:04:42.102Z,0.60
2017-11-21T03:07:09.621Z,0.57
2017-11-21T03:09:37.129Z,0.50
2017-11-21T03:12:04.637Z,0.50
2017-11-21T03:14:32.154Z,0.73
2017-11-21T03:17:00.420Z,0.60
2017-11-21T03:19:27.938Z,0.40
2017-11-21T03:22:07.250Z,0.70
2017-11-21T03:24:46.750Z,0.50
2017-11-21T03:27:15.014Z,0.50
2017-11-21T03:29:42.534Z,0.70
2017-11-21T03:32:10.061Z,0.40
2017-11-21T03:34:37.557Z,0.40
2017-11-21T03:37:05.852Z,0.50
2017-11-21T03:39:33.351Z,0.60
2017-11-21T03:42:00.837Z,0.50
2017-11-21T03:44:28.342Z,0.50
2017-11-21T03:46:56.605Z,0.60
2017-11-21T03:49:24.122Z,0.60
2017-11-21T03:51:51.627Z,0.60
2017-11-21T03:54:19.909Z,0.60
2017-11-21T03:56:48.169Z,0.80
2017-11-21T03:59:15.683Z,0.50
2017-11-21T04:01:43.185Z,0.60
2017-11-21T04:04:10.698Z,0.70
2017-11-21T04:06:38.196Z,0.50
2017-11-21T04:09:06.482Z,0.40
2017-11-21T04:11:33.986Z,0.40
2017-11-21T04:14:02.280Z,0.40
2017-11-21T04:16:30.554Z,0.50
2017-11-21T04:18:58.826Z,0.50
2017-11-21T04:21:27.098Z,0.50
2017-11-21T04:23:55.379Z,0.47
2017-11-21T04:26:24.090Z,0.40
2017-11-21T04:28:51.621Z,0.53
2017-11-21T04:31:19.896Z,0.50
2017-11-21T04:33:47.518Z,0.40
2017-11-21T04:36:15.013Z,0.40
2017-11-21T04:38:43.288Z,0.40
2017-11-21T04:41:11.570Z,0.40
2017-11-21T04:43:39.063Z,0.53
2017-11-21T04:46:06.573Z,0.40
2017-11-21T04:48:34.828Z,0.50
2017-11-21T04:51:02.334Z,0.40
2017-11-21T04:53:29.821Z,0.40
2017-11-21T04:55:57.330Z,0.50
2017-11-21T04:58:24.837Z,0.40
2017-11-21T05:00:52.328Z,0.40
2017-11-21T05:03:20.600Z,0.40
2017-11-21T05:05:48.857Z,0.40
2017-11-21T05:08:16.354Z,0.40
2017-11-21T05:10:45.010Z,0.70
2017-11-21T05:13:12.503Z,0.70
2017-11-21T05:15:40.019Z,1.30
2017-11-21T05:18:07.507Z,0.93
2017-11-21T05:20:35.013Z,0.57
2017-11-21T05:23:02.522Z,0.63
2017-11-21T05:25:30.034Z,0.50
2017-11-21T05:27:57.649Z,0.50
2017-11-21T05:30:25.139Z,0.40
2017-11-21T05:33:04.468Z,0.50
2017-11-21T05:35:31.957Z,0.43
2017-11-21T05:38:00.237Z,0.67
2017-11-21T05:40:28.509Z,0.40
2017-11-21T05:42:56.770Z,0.40
2017-11-21T05:45:24.272Z,0.50
2017-11-21T05:47:51.768Z,0.50
2017-11-21T05:50:19.252Z,0.43
2017-11-21T05:52:47.541Z,0.30
2017-11-21T05:55:15.039Z,0.40
2017-11-21T05:57:42.660Z,0.50
2017-11-21T06:00:10.159Z,0.40
2017-11-21T06:02:37.652Z,0.40
2017-11-21T06:05:05.933Z,0.43
2017-11-21T06:07:34.213Z,0.93
2017-11-21T06:10:02.478Z,0.60
2017-11-21T06:12:30.740Z,0.73
2017-11-21T06:14:58.264Z,0.60
2017-11-21T06:17:25.757Z,0.60
2017-11-21T06:19:53.292Z,0.40
2017-11-21T06:22:20.787Z,0.40
2017-11-21T06:24:49.081Z,0.40
2017-11-21T06:27:16.564Z,0.77
2017-11-21T06:29:44.078Z,0.40
2017-11-21T06:32:12.357Z,0.30
2017-11-21T06:34:40.613Z,0.40
2017-11-21T06:37:08.909Z,0.50
2017-11-21T06:39:36.401Z,0.30
2017-11-21T06:42:03.904Z,0.40
2017-11-21T06:44:32.162Z,0.40
2017-11-21T06:46:59.680Z,0.57
2017-11-21T06:49:27.169Z,0.40
2017-11-21T06:51:54.678Z,0.40
2017-11-21T06:54:22.179Z,0.37
2017-11-21T06:56:49.694Z,0.50
2017-11-21T06:59:17.189Z,0.30
2017-11-21T07:01:45.661Z,0.40
2017-11-21T07:04:13.329Z,0.70
2017-11-21T07:06:41.042Z,0.70
2017-11-21T07:09:08.558Z,0.60
2017-11-21T07:11:36.050Z,0.70
2017-11-21T07:14:03.556Z,0.40
2017-11-21T07:16:31.047Z,0.30
2017-11-21T07:18:59.329Z,0.40
2017-11-21T07:21:27.593Z,0.40
2017-11-21T07:23:55.888Z,0.47
2017-11-21T07:26:23.429Z,0.50
2017-11-21T07:28:51.696Z,0.50
2017-11-21T07:31:19.184Z,0.50
2017-11-21T07:33:46.693Z,0.50
2017-11-21T07:36:14.210Z,0.50
2017-11-21T07:38:42.693Z,0.93
2017-11-21T07:41:10.208Z,0.60
2017-11-21T07:43:38.466Z,0.70
2017-11-21T07:46:05.956Z,0.60
2017-11-21T07:48:34.240Z,0.50
2017-11-21T07:51:01.758Z,0.50
2017-11-21T07:53:29.273Z,0.80
2017-11-21T07:55:56.759Z,0.77
2017-11-21T07:58:24.250Z,0.80
2017-11-21T08:00:52.533Z,0.60
2017-11-21T08:03:20.796Z,0.60
2017-11-21T08:05:49.071Z,0.60
2017-11-21T08:08:17.346Z,0.50
2017-11-21T08:10:45.620Z,0.60
2017-11-21T08:13:13.893Z,0.53
2017-11-21T08:15:42.169Z,0.80
2017-11-21T08:18:10.436Z,0.63
2017-11-21T08:20:38.713Z,0.60
2017-11-21T08:23:07.029Z,0.50
2017-11-21T08:25:34.516Z,0.50
2017-11-21T08:28:02.021Z,0.50
2017-11-21T08:30:29.516Z,0.43
2017-11-21T08:32:57.035Z,0.70
2017-11-21T08:35:24.526Z,0.40
2017-11-21T08:37:52.017Z,0.50
2017-11-21T08:40:20.306Z,0.60
2017-11-21T08:42:48.585Z,0.50
2017-11-21T08:45:16.861Z,0.43
2017-11-21T08:47:45.129Z,0.60
2017-11-21T08:50:13.404Z,0.57
2017-11-21T08:52:41.673Z,0.40
2017-11-21T08:55:09.162Z,0.40
2017-11-21T08:57:36.674Z,0.57
2017-11-21T09:00:04.173Z,0.60
2017-11-21T09:02:31.681Z,0.40
2017-11-21T09:04:59.178Z,0.70
2017-11-21T09:07:26.695Z,0.53
2017-11-21T09:09:54.214Z,0.50
2017-11-21T09:12:21.721Z,0.50
2017-11-21T09:14:49.230Z,0.73
2017-11-21T09:17:16.725Z,0.50
2017-11-21T09:19:44.237Z,0.50
2017-11-21T09:22:11.733Z,0.60
2017-11-21T09:24:39.254Z,0.60
2017-11-21T09:27:06.769Z,0.67
2017-11-21T09:29:34.286Z,0.53
2017-11-21T09:32:01.793Z,0.50
2017-11-21T09:34:31.578Z,0.60
2017-11-21T09:36:59.089Z,0.90
2017-11-21T09:39:26.589Z,0.60
2017-11-21T09:41:54.110Z,0.80
2017-11-21T09:44:21.638Z,0.60
2017-11-21T09:46:49.917Z,0.70
2017-11-21T09:49:17.417Z,0.50
2017-11-21T09:51:44.920Z,0.50
2017-11-21T09:54:13.186Z,0.60
2017-11-21T09:56:41.533Z,0.57
2017-11-21T09:59:09.078Z,0.50
2017-11-21T10:01:36.597Z,0.60
2017-11-21T10:04:04.106Z,0.50
2017-11-21T10:06:31.603Z,0.57
2017-11-21T10:08:59.888Z,0.50
2017-11-21T10:11:27.435Z,0.40
2017-11-21T10:13:55.709Z,0.53
2017-11-21T10:16:23.971Z,0.40
2017-11-21T10:18:52.228Z,0.50
2017-11-21T10:21:19.740Z,0.50
2017-11-21T10:23:47.225Z,0.60
2017-11-21T10:26:14.754Z,0.50
2017-11-21T10:28:42.249Z,0.60
2017-11-21T10:31:09.744Z,0.50
2017-11-21T10:33:38.018Z,0.50
2017-11-21T10:36:06.270Z,0.50
2017-11-21T10:38:33.773Z,0.50
2017-11-21T10:41:01.289Z,0.40
2017-11-21T10:43:28.796Z,0.50
2017-11-21T10:45:56.296Z,0.50
2017-11-21T10:48:23.785Z,0.50
2017-11-21T10:50:51.300Z,0.70
2017-11-21T10:53:18.849Z,0.50
2017-11-21T10:55:46.336Z,0.50
2017-11-21T10:58:14.611Z,0.57
2017-11-21T11:00:42.877Z,0.73
2017-11-21T11:03:10.394Z,0.50
2017-11-21T11:05:37.909Z,0.60
2017-11-21T11:08:06.180Z,0.50
2017-11-21T11:10:34.470Z,0.50
2017-11-21T11:13:01.965Z,0.53
2017-11-21T11:15:29.464Z,0.50
2017-11-21T11:17:57.727Z,0.57
2017-11-21T11:20:25.234Z,0.50
2017-11-21T11:22:52.720Z,0.40
2017-11-21T11:25:20.212Z,0.50
2017-11-21T11:27:48.481Z,0.50
2017-11-21T11:30:16.752Z,0.63
2017-11-21T11:32:45.031Z,0.50
2017-11-21T11:35:13.294Z,0.60
2017-11-21T11:37:40.800Z,0.50
2017-11-21T11:40:08.284Z,0.70
2017-11-21T11:42:35.785Z,0.67
2017-11-21T11:45:04.050Z,0.70
2017-11-21T11:47:32.342Z,0.40
2017-11-21T11:49:59.833Z,0.60
2017-11-21T11:52:27.320Z,0.73
2017-11-21T11:54:54.837Z,0.67
2017-11-21T11:57:22.345Z,0.53
2017-11-21T11:59:50.631Z,0.50
2017-11-21T12:02:18.138Z,0.70
2017-11-21T12:04:45.672Z,0.50
2017-11-21T12:07:13.166Z,0.53
2017-11-21T12:09:40.668Z,0.80
2017-11-21T12:12:08.201Z,0.70
2017-11-21T12:14:36.469Z,0.50
2017-11-21T12:17:03.974Z,0.60
2017-11-21T12:19:31.464Z,0.73
2017-11-21T12:22:00.679Z,0.90
2017-11-21T12:24:28.209Z,0.97
2017-11-21T12:26:55.709Z,0.60
2017-11-21T12:29:24.001Z,0.57
2017-11-21T12:31:51.517Z,0.70
2017-11-21T12:34:19.039Z,0.83
2017-11-21T12:36:46.799Z,1.03
2017-11-21T12:39:14.304Z,1.10
2017-11-21T12:41:41.808Z,0.90
2017-11-21T12:44:09.304Z,0.90
2017-11-21T12:46:36.806Z,0.73
2017-11-21T12:49:04.356Z,0.80
2017-11-21T12:51:32.617Z,1.07
2017-11-21T12:54:00.902Z,0.87
2017-11-21T12:56:29.164Z,1.00
2017-11-21T12:58:57.437Z,1.03
2017-11-21T13:01:25.708Z,0.60
2017-11-21T13:03:53.209Z,0.80
2017-11-21T13:06:21.326Z,0.80
2017-11-21T13:08:48.823Z,0.80
2017-11-21T13:11:16.333Z,0.80
2017-11-21T13:13:43.829Z,0.77
2017-11-21T13:16:11.489Z,1.13
2017-11-21T13:18:39.748Z,1.00
2017-11-21T13:21:08.014Z,0.97
2017-11-21T13:23:35.529Z,1.17
2017-11-21T13:26:03.035Z,0.60
2017-11-21T13:28:31.316Z,0.50
2017-11-21T13:30:58.841Z,0.70
2017-11-21T13:33:26.338Z,0.80
2017-11-21T13:35:54.617Z,0.70
2017-11-21T13:38:22.118Z,1.27
2017-11-21T13:40:49.613Z,1.10
2017-11-21T13:43:17.885Z,0.80
2017-11-21T13:45:45.380Z,0.50
2017-11-21T13:48:12.894Z,1.10
2017-11-21T13:50:40.390Z,0.63
2017-11-21T13:53:07.898Z,0.80
2017-11-21T13:55:35.397Z,0.90
2017-11-21T13:58:02.931Z,0.97
2017-11-21T14:00:31.195Z,1.10
2017-11-21T14:02:58.711Z,0.90
2017-11-21T14:05:26.232Z,0.80
2017-11-21T14:07:53.739Z,1.17
2017-11-21T14:10:21.257Z,1.03
2017-11-21T14:12:48.762Z,1.50
2017-11-21T14:15:16.270Z,0.77
2017-11-21T14:17:43.779Z,0.77
2017-11-21T14:20:11.284Z,2.00
2017-11-21T14:22:38.793Z,1.00
2017-11-21T14:25:06.293Z,0.77
2017-11-21T14:27:33.813Z,0.70
2017-11-21T14:30:01.320Z,0.80
2017-11-21T14:32:28.811Z,1.50
2017-11-21T14:34:56.327Z,1.00
2017-11-21T14:37:23.833Z,1.03
2017-11-21T14:39:51.328Z,1.13
2017-11-21T14:42:18.854Z,1.50
2017-11-21T14:44:46.350Z,1.67
2017-11-21T14:47:13.850Z,1.90
2017-11-21T14:49:41.360Z,1.40
2017-11-21T14:52:08.852Z,1.00
2017-11-21T14:54:36.389Z,1.00
2017-11-21T14:57:03.886Z,1.40
2017-11-21T14:59:31.381Z,1.00
2017-11-21T15:01:58.896Z,1.00
2017-11-21T15:04:26.403Z,1.27
2017-11-21T15:06:53.903Z,1.20
2017-11-21T15:09:21.406Z,0.97
2017-11-21T15:11:49.686Z,1.60
2017-11-21T15:14:17.208Z,0.90
2017-11-21T15:16:44.726Z,0.90
2017-11-21T15:19:12.233Z,0.80
2017-11-21T15:21:40.498Z,1.00
2017-11-21T15:24:08.016Z,1.10
2017-11-21T15:26:35.509Z,1.13
2017-11-21T15:29:03.000Z,1.00
2017-11-21T15:31:30.509Z,0.90
2017-11-21T15:33:58.014Z,1.20
2017-11-21T15:36:25.523Z,0.80
2017-11-21T15:38:53.038Z,1.03
2017-11-21T15:41:20.533Z,1.00
2017-11-21T15:43:48.052Z,1.37
2017-11-21T15:46:15.541Z,1.10
2017-11-21T15:48:43.033Z,0.80
2017-11-21T15:51:11.334Z,1.00
2017-11-21T15:53:38.853Z,3.80
2017-11-21T15:56:06.362Z,2.83
2017-11-21T15:58:33.860Z,1.70
2017-11-21T16:01:01.373Z,1.40
2017-11-21T16:03:28.872Z,1.60
2017-11-21T16:05:57.152Z,1.40
2017-11-21T16:08:24.652Z,1.27
2017-11-21T16:10:52.136Z,1.03
2017-11-21T16:13:19.646Z,1.07
2017-11-21T16:15:47.915Z,1.10
2017-11-21T16:18:16.185Z,2.50
2017-11-21T16:20:44.460Z,1.10
2017-11-21T16:23:12.729Z,0.93
2017-11-21T16:25:40.233Z,0.90
2017-11-21T16:28:07.717Z,1.80
2017-11-21T16:30:35.227Z,1.23
2017-11-21T16:33:02.716Z,1.10
2017-11-21T16:35:30.228Z,2.10
2017-11-21T16:37:58.613Z,1.20
2017-11-21T16:40:26.135Z,1.23
2017-11-21T16:42:54.424Z,1.07
2017-11-21T16:45:21.933Z,1.90
2017-11-21T16:47:49.448Z,2.13
2017-11-21T16:50:17.716Z,1.63
2017-11-21T16:52:45.977Z,1.00
2017-11-21T16:55:13.500Z,1.53
2017-11-21T16:57:40.989Z,1.53
2017-11-21T17:00:08.527Z,1.03
2017-11-21T17:02:36.043Z,1.60
2017-11-21T17:05:03.545Z,1.70
2017-11-21T17:07:31.090Z,2.13
2017-11-21T17:09:59.352Z,1.43
2017-11-21T17:12:26.853Z,2.60
2017-11-21T17:14:54.394Z,1.17
2017-11-21T17:17:21.885Z,1.33
2017-11-21T17:19:50.190Z,1.13
2017-11-21T17:22:17.775Z,1.40
2017-11-21T17:24:45.278Z,2.37
2017-11-21T17:27:13.572Z,1.70
2017-11-21T17:29:41.073Z,1.33
2017-11-21T17:32:08.576Z,1.20
2017-11-21T17:34:36.104Z,2.00
2017-11-21T17:37:03.615Z,1.10
2017-11-21T17:39:31.123Z,1.40
2017-11-21T17:41:58.696Z,1.23
2017-11-21T17:44:26.951Z,1.97
2017-11-21T17:46:54.476Z,1.90
2017-11-21T17:49:22.014Z,2.03
2017-11-21T17:51:49.549Z,1.40
2017-11-21T17:54:17.110Z,2.73
2017-11-21T17:56:44.624Z,3.00
2017-11-21T17:59:12.115Z,1.67
2017-11-21T18:01:44.773Z,1.10
2017-11-21T18:04:12.898Z,2.00
2017-11-21T18:06:40.409Z,1.67
2017-11-21T18:09:07.953Z,1.30
2017-11-21T18:11:36.222Z,1.67
2017-11-21T18:14:04.521Z,1.30
2017-11-21T18:16:32.012Z,1.27
2017-11-21T18:18:59.509Z,1.37
2017-11-21T18:21:27.033Z,1.00
2017-11-21T18:23:54.521Z,1.23
2017-11-21T18:26:22.057Z,1.83
2017-11-21T18:28:49.617Z,1.33
2017-11-21T18:31:17.105Z,3.07
2017-11-21T18:33:45.388Z,1.87
2017-11-21T18:36:12.884Z,1.43
2017-11-21T18:38:40.383Z,1.40
2017-11-21T18:41:08.673Z,1.30
2017-11-21T18:43:36.173Z,1.30
2017-11-21T18:46:03.687Z,1.20
2017-11-21T18:48:31.172Z,1.50
2017-11-21T18:50:58.689Z,1.60
2017-11-21T18:53:26.962Z,1.50
2017-11-21T18:55:54.512Z,0.80
2017-11-21T18:58:22.774Z,0.87
2017-11-21T19:00:50.298Z,0.70
2017-11-21T19:03:17.787Z,1.37
2017-11-21T19:05:45.339Z,0.80
2017-11-21T19:08:12.832Z,1.20
2017-11-21T19:10:41.121Z,0.63
2017-11-21T19:13:08.877Z,1.00
2017-11-21T19:15:36.381Z,1.17
2017-11-21T19:18:03.907Z,1.23
2017-11-21T19:20:31.406Z,1.80
2017-11-21T19:22:59.745Z,1.87
2017-11-21T19:25:27.253Z,1.23
2017-11-21T19:27:55.661Z,1.00
2017-11-21T19:30:23.560Z,1.10
2017-11-21T19:32:51.082Z,1.47
2017-11-21T19:35:18.630Z,1.17
2017-11-21T19:37:46.206Z,0.87
2017-11-21T19:40:13.708Z,1.00
2017-11-21T19:42:42.075Z,0.77
2017-11-21T19:45:09.612Z,0.90
2017-11-21T19:47:37.145Z,1.40
2017-11-21T19:50:04.992Z,1.03
2017-11-21T19:52:33.253Z,0.90
2017-11-21T19:55:00.841Z,2.87
2017-11-21T19:57:28.480Z,1.43
2017-11-21T19:59:56.066Z,1.00
2017-11-21T20:02:23.703Z,1.83
2017-11-21T20:04:51.253Z,1.20
2017-11-21T20:07:19.857Z,1.00
2017-11-21T20:09:47.402Z,0.73
2017-11-21T20:15:08.329Z,1.10
2017-11-21T20:17:37.118Z,0.70
2017-11-21T20:20:05.438Z,1.20
2017-11-21T20:22:33.015Z,0.90
2017-11-21T20:25:00.572Z,1.63
2017-11-21T20:27:28.103Z,1.40
2017-11-21T20:29:55.625Z,1.07
2017-11-21T20:32:23.899Z,1.23
2017-11-21T20:34:52.234Z,2.07
2017-11-21T20:43:02.047Z,1.10
2017-11-21T20:45:29.532Z,1.17
2017-11-21T20:47:57.084Z,2.23
2017-11-21T20:50:25.373Z,2.03
2017-11-21T20:52:53.012Z,1.20
2017-11-21T20:55:20.563Z,1.87
2017-11-21T20:57:48.842Z,1.87
2017-11-21T21:00:19.816Z,1.33
2017-11-21T21:02:47.345Z,0.60
2017-11-21T21:05:14.841Z,1.50
2017-11-21T21:07:42.363Z,1.37
2017-11-21T21:10:09.889Z,1.33
2017-11-21T21:12:37.396Z,2.87
2017-11-21T21:15:04.941Z,1.30
2017-11-21T21:17:32.433Z,1.17
2017-11-21T21:19:59.929Z,1.47
2017-11-21T21:22:28.208Z,1.10
2017-11-21T21:24:56.504Z,1.43
2017-11-21T21:27:35.826Z,1.00
2017-11-21T21:30:04.121Z,1.10
2017-11-21T21:32:31.693Z,1.37
2017-11-21T21:34:59.188Z,3.00
2017-11-21T21:37:26.672Z,2.80
2017-11-21T21:39:54.963Z,12.73
2017-11-21T21:42:22.494Z,6.83
2017-11-21T21:44:49.996Z,3.70
2017-11-21T21:47:17.505Z,5.03
2017-11-21T21:49:45.796Z,6.50
2017-11-21T21:52:13.320Z,21.43
2017-11-21T21:54:40.838Z,24.03
2017-11-21T21:57:08.367Z,8.33
2017-11-21T21:59:35.869Z,5.03
2017-11-21T22:02:03.389Z,4.50
2017-11-21T22:04:30.904Z,3.27
2017-11-21T22:06:58.430Z,2.37
2017-11-21T22:09:25.957Z,1.27
2017-11-21T22:11:53.449Z,1.30
2017-11-21T22:14:20.975Z,1.00
2017-11-21T22:16:48.462Z,1.10
2017-11-21T22:19:15.950Z,1.20
2017-11-21T22:21:43.473Z,1.47
2017-11-21T22:24:10.956Z,1.90
2017-11-21T22:26:38.485Z,1.20
2017-11-21T22:29:06.013Z,1.87
2017-11-21T22:31:33.509Z,1.23
2017-11-21T22:34:01.004Z,1.50
2017-11-21T22:36:29.408Z,1.00
2017-11-21T22:38:56.892Z,1.00
2017-11-21T22:41:24.381Z,1.20
2017-11-21T22:43:51.917Z,0.90
2017-11-21T22:46:19.448Z,1.23
2017-11-21T22:48:46.976Z,1.40
2017-11-21T22:51:14.491Z,1.97
2017-11-21T22:53:41.980Z,1.03
2017-11-21T22:56:10.284Z,1.60
2017-11-21T22:58:37.808Z,1.50
2017-11-21T23:01:06.066Z,1.43
2017-11-21T23:03:33.567Z,0.70
2017-11-21T23:06:01.066Z,1.10
2017-11-21T23:08:28.584Z,1.20
2017-11-21T23:10:56.081Z,1.37
2017-11-21T23:13:23.575Z,1.00
2017-11-21T23:15:51.866Z,1.03
2017-11-21T23:18:19.349Z,0.87
2017-11-21T23:20:46.841Z,1.00
2017-11-21T23:23:14.350Z,0.80
2017-11-21T23:25:41.840Z,0.87
2017-11-21T23:28:09.327Z,0.97
2017-11-21T23:30:37.609Z,1.00
2017-11-21T23:33:05.863Z,0.90
2017-11-21T23:35:33.365Z,1.10
2017-11-21T23:38:00.884Z,1.67
2017-11-21T23:40:28.364Z,1.03
2017-11-21T23:42:55.848Z,0.97
2017-11-21T23:45:23.356Z,1.00
2017-11-21T23:47:50.850Z,1.37
2017-11-21T23:50:18.343Z,1.40
2017-11-21T23:52:45.877Z,1.43
2017-11-21T23:55:13.373Z,0.77
2017-11-21T23:57:40.874Z,1.10
